sensor_id;sensor_type;location;lat;lon;timestamp;P1;durP1;ratioP1;P2;durP2;ratioP2
76989;SDS011;65924;47.250;11.332;2023-04-15T00:00:33;4.20;;;2.40;;
76989;SDS011;65924;47.250;11.332;2023-04-15T00:01:11;5.00;;;2.80;;
76989;SDS011;65924;47.250;11.332;2023-04-15T00:01:57;5.90;;;3.00;;
76989;SDS011;65924;47.250;11.332;2023-04-15T00:02:37;5.20;;;2.80;;
76989;SDS011;65924;47.250;11.332;2023-04-15T00:03:16;4.80;;;2.60;;
76989;SDS011;65924;47.250;11.332;2023-04-15T00:03:57;4.90;;;2.70;;
76989;SDS011;65924;47.250;11.332;2023-04-15T00:04:36;5.40;;;2.80;;
76989;SDS011;65924;47.250;11.332;2023-04-15T00:05:15;7.00;;;2.80;;
76989;SDS011;65924;47.250;11.332;2023-04-15T00:05:53;5.30;;;3.00;;
76989;SDS011;65924;47.250;11.332;2023-04-15T00:06:32;4.60;;;2.70;;
76989;SDS011;65924;47.250;11.332;2023-04-15T00:07:11;6.80;;;2.90;;
76989;SDS011;65924;47.250;11.332;2023-04-15T00:07:49;4.60;;;2.50;;
76989;SDS011;65924;47.250;11.332;2023-04-15T00:08:28;5.60;;;3.30;;
76989;SDS011;65924;47.250;11.332;2023-04-15T00:09:07;6.70;;;2.70;;
76989;SDS011;65924;47.250;11.332;2023-04-15T00:09:45;3.90;;;2.40;;
76989;SDS011;65924;47.250;11.332;2023-04-15T00:10:24;4.60;;;2.70;;
76989;SDS011;65924;47.250;11.332;2023-04-15T00:11:03;6.40;;;3.00;;
76989;SDS011;65924;47.250;11.332;2023-04-15T00:11:42;7.10;;;2.90;;
76989;SDS011;65924;47.250;11.332;2023-04-15T00:12:21;5.10;;;2.50;;
76989;SDS011;65924;47.250;11.332;2023-04-15T00:13:00;5.40;;;3.10;;
76989;SDS011;65924;47.250;11.332;2023-04-15T00:13:40;4.30;;;2.40;;
76989;SDS011;65924;47.250;11.332;2023-04-15T00:14:19;5.30;;;2.70;;
76989;SDS011;65924;47.250;11.332;2023-04-15T00:15:00;5.30;;;2.90;;
76989;SDS011;65924;47.250;11.332;2023-04-15T00:15:39;5.20;;;2.80;;
76989;SDS011;65924;47.250;11.332;2023-04-15T00:16:18;8.10;;;3.00;;
76989;SDS011;65924;47.250;11.332;2023-04-15T00:16:57;4.70;;;3.00;;
76989;SDS011;65924;47.250;11.332;2023-04-15T00:17:35;6.30;;;3.20;;
76989;SDS011;65924;47.250;11.332;2023-04-15T00:18:16;4.60;;;2.70;;
76989;SDS011;65924;47.250;11.332;2023-04-15T00:18:55;5.20;;;3.00;;
76989;SDS011;65924;47.250;11.332;2023-04-15T00:19:34;5.30;;;2.90;;
76989;SDS011;65924;47.250;11.332;2023-04-15T00:20:12;5.70;;;3.20;;
76989;SDS011;65924;47.250;11.332;2023-04-15T00:20:51;4.70;;;3.00;;
76989;SDS011;65924;47.250;11.332;2023-04-15T00:21:30;5.40;;;2.20;;
76989;SDS011;65924;47.250;11.332;2023-04-15T00:22:09;5.10;;;2.70;;
76989;SDS011;65924;47.250;11.332;2023-04-15T00:22:48;4.40;;;2.30;;
76989;SDS011;65924;47.250;11.332;2023-04-15T00:23:27;5.40;;;2.90;;
76989;SDS011;65924;47.250;11.332;2023-04-15T00:24:06;5.40;;;3.10;;
76989;SDS011;65924;47.250;11.332;2023-04-15T00:24:44;5.10;;;2.80;;
76989;SDS011;65924;47.250;11.332;2023-04-15T00:25:23;4.70;;;2.70;;
76989;SDS011;65924;47.250;11.332;2023-04-15T00:26:02;4.70;;;2.90;;
76989;SDS011;65924;47.250;11.332;2023-04-15T00:26:40;5.50;;;3.10;;
76989;SDS011;65924;47.250;11.332;2023-04-15T00:27:19;5.20;;;2.60;;
76989;SDS011;65924;47.250;11.332;2023-04-15T00:27:58;5.20;;;2.70;;
76989;SDS011;65924;47.250;11.332;2023-04-15T00:28:39;5.00;;;2.40;;
76989;SDS011;65924;47.250;11.332;2023-04-15T00:29:19;6.30;;;3.10;;
76989;SDS011;65924;47.250;11.332;2023-04-15T00:30:01;4.90;;;2.80;;
76989;SDS011;65924;47.250;11.332;2023-04-15T00:30:41;4.80;;;2.40;;
76989;SDS011;65924;47.250;11.332;2023-04-15T00:31:20;4.50;;;2.80;;
76989;SDS011;65924;47.250;11.332;2023-04-15T00:31:58;6.80;;;3.00;;
76989;SDS011;65924;47.250;11.332;2023-04-15T00:32:37;4.90;;;2.70;;
76989;SDS011;65924;47.250;11.332;2023-04-15T00:33:16;4.60;;;2.60;;
76989;SDS011;65924;47.250;11.332;2023-04-15T00:33:55;5.60;;;2.70;;
76989;SDS011;65924;47.250;11.332;2023-04-15T00:34:34;6.80;;;3.30;;
76989;SDS011;65924;47.250;11.332;2023-04-15T00:35:13;4.90;;;2.90;;
76989;SDS011;65924;47.250;11.332;2023-04-15T00:35:51;4.90;;;3.10;;
76989;SDS011;65924;47.250;11.332;2023-04-15T00:36:30;4.70;;;3.00;;
76989;SDS011;65924;47.250;11.332;2023-04-15T00:37:11;5.40;;;2.80;;
76989;SDS011;65924;47.250;11.332;2023-04-15T00:37:49;5.00;;;2.60;;
76989;SDS011;65924;47.250;11.332;2023-04-15T00:38:28;5.40;;;2.30;;
76989;SDS011;65924;47.250;11.332;2023-04-15T00:39:07;4.90;;;2.90;;
76989;SDS011;65924;47.250;11.332;2023-04-15T00:39:46;5.30;;;2.30;;
76989;SDS011;65924;47.250;11.332;2023-04-15T00:40:24;6.30;;;2.70;;
76989;SDS011;65924;47.250;11.332;2023-04-15T00:41:03;5.30;;;3.00;;
76989;SDS011;65924;47.250;11.332;2023-04-15T00:41:42;6.20;;;2.60;;
76989;SDS011;65924;47.250;11.332;2023-04-15T00:42:33;4.50;;;2.80;;
76989;SDS011;65924;47.250;11.332;2023-04-15T00:43:12;4.70;;;2.90;;
76989;SDS011;65924;47.250;11.332;2023-04-15T00:43:50;6.20;;;3.20;;
76989;SDS011;65924;47.250;11.332;2023-04-15T00:44:30;5.00;;;2.60;;
76989;SDS011;65924;47.250;11.332;2023-04-15T00:45:09;4.50;;;2.50;;
76989;SDS011;65924;47.250;11.332;2023-04-15T00:45:52;4.80;;;3.10;;
76989;SDS011;65924;47.250;11.332;2023-04-15T00:46:32;5.90;;;3.10;;
76989;SDS011;65924;47.250;11.332;2023-04-15T00:47:13;4.50;;;2.50;;
76989;SDS011;65924;47.250;11.332;2023-04-15T00:47:53;5.40;;;2.50;;
76989;SDS011;65924;47.250;11.332;2023-04-15T00:48:32;4.60;;;2.40;;
76989;SDS011;65924;47.250;11.332;2023-04-15T00:49:11;5.70;;;2.90;;
76989;SDS011;65924;47.250;11.332;2023-04-15T00:49:50;6.50;;;2.30;;
76989;SDS011;65924;47.250;11.332;2023-04-15T00:50:29;4.40;;;2.40;;
76989;SDS011;65924;47.250;11.332;2023-04-15T00:51:08;5.50;;;2.40;;
76989;SDS011;65924;47.250;11.332;2023-04-15T00:51:48;4.50;;;2.50;;
76989;SDS011;65924;47.250;11.332;2023-04-15T00:52:26;4.90;;;2.50;;
76989;SDS011;65924;47.250;11.332;2023-04-15T00:53:05;7.10;;;3.10;;
76989;SDS011;65924;47.250;11.332;2023-04-15T00:53:44;5.00;;;2.10;;
76989;SDS011;65924;47.250;11.332;2023-04-15T00:54:23;4.60;;;2.20;;
76989;SDS011;65924;47.250;11.332;2023-04-15T00:55:02;6.90;;;2.60;;
76989;SDS011;65924;47.250;11.332;2023-04-15T00:55:43;4.80;;;2.40;;
76989;SDS011;65924;47.250;11.332;2023-04-15T00:56:22;6.20;;;2.50;;
76989;SDS011;65924;47.250;11.332;2023-04-15T00:57:04;5.70;;;2.90;;
76989;SDS011;65924;47.250;11.332;2023-04-15T00:57:44;6.10;;;2.30;;
76989;SDS011;65924;47.250;11.332;2023-04-15T00:58:23;5.50;;;2.40;;
76989;SDS011;65924;47.250;11.332;2023-04-15T00:59:02;4.80;;;2.70;;
76989;SDS011;65924;47.250;11.332;2023-04-15T00:59:42;4.80;;;2.40;;
76989;SDS011;65924;47.250;11.332;2023-04-15T01:00:20;6.70;;;2.90;;
76989;SDS011;65924;47.250;11.332;2023-04-15T01:00:59;5.10;;;2.80;;
76989;SDS011;65924;47.250;11.332;2023-04-15T01:01:38;5.10;;;3.00;;
76989;SDS011;65924;47.250;11.332;2023-04-15T01:02:18;4.50;;;2.30;;
76989;SDS011;65924;47.250;11.332;2023-04-15T01:02:57;4.20;;;2.50;;
76989;SDS011;65924;47.250;11.332;2023-04-15T01:03:35;5.50;;;2.10;;
76989;SDS011;65924;47.250;11.332;2023-04-15T01:04:14;5.50;;;2.30;;
76989;SDS011;65924;47.250;11.332;2023-04-15T01:04:53;4.90;;;2.30;;
76989;SDS011;65924;47.250;11.332;2023-04-15T01:05:34;4.90;;;2.80;;
76989;SDS011;65924;47.250;11.332;2023-04-15T01:06:13;4.80;;;2.70;;
76989;SDS011;65924;47.250;11.332;2023-04-15T01:06:52;4.90;;;2.50;;
76989;SDS011;65924;47.250;11.332;2023-04-15T01:07:31;6.30;;;3.00;;
76989;SDS011;65924;47.250;11.332;2023-04-15T01:08:09;4.30;;;2.30;;
76989;SDS011;65924;47.250;11.332;2023-04-15T01:08:48;5.70;;;2.70;;
76989;SDS011;65924;47.250;11.332;2023-04-15T01:09:28;4.90;;;3.20;;
76989;SDS011;65924;47.250;11.332;2023-04-15T01:10:07;7.00;;;3.60;;
76989;SDS011;65924;47.250;11.332;2023-04-15T01:10:46;5.40;;;2.90;;
76989;SDS011;65924;47.250;11.332;2023-04-15T01:11:24;4.60;;;2.50;;
76989;SDS011;65924;47.250;11.332;2023-04-15T01:12:04;4.90;;;2.90;;
76989;SDS011;65924;47.250;11.332;2023-04-15T01:12:44;4.80;;;2.70;;
76989;SDS011;65924;47.250;11.332;2023-04-15T01:13:23;5.00;;;2.90;;
76989;SDS011;65924;47.250;11.332;2023-04-15T01:14:02;5.60;;;3.20;;
76989;SDS011;65924;47.250;11.332;2023-04-15T01:14:41;6.70;;;3.00;;
76989;SDS011;65924;47.250;11.332;2023-04-15T01:15:20;5.10;;;2.70;;
76989;SDS011;65924;47.250;11.332;2023-04-15T01:15:59;4.80;;;2.70;;
76989;SDS011;65924;47.250;11.332;2023-04-15T01:16:40;4.80;;;2.70;;
76989;SDS011;65924;47.250;11.332;2023-04-15T01:17:19;5.10;;;2.80;;
76989;SDS011;65924;47.250;11.332;2023-04-15T01:17:58;7.40;;;3.70;;
76989;SDS011;65924;47.250;11.332;2023-04-15T01:18:37;4.80;;;2.90;;
76989;SDS011;65924;47.250;11.332;2023-04-15T01:19:18;5.30;;;3.00;;
76989;SDS011;65924;47.250;11.332;2023-04-15T01:19:57;5.80;;;3.10;;
76989;SDS011;65924;47.250;11.332;2023-04-15T01:20:36;4.40;;;2.70;;
76989;SDS011;65924;47.250;11.332;2023-04-15T01:21:17;4.90;;;2.80;;
76989;SDS011;65924;47.250;11.332;2023-04-15T01:21:58;5.90;;;2.80;;
76989;SDS011;65924;47.250;11.332;2023-04-15T01:22:37;5.60;;;3.00;;
76989;SDS011;65924;47.250;11.332;2023-04-15T01:23:20;5.20;;;3.20;;
76989;SDS011;65924;47.250;11.332;2023-04-15T01:24:00;7.20;;;3.20;;
76989;SDS011;65924;47.250;11.332;2023-04-15T01:24:43;6.10;;;3.00;;
76989;SDS011;65924;47.250;11.332;2023-04-15T01:25:39;5.30;;;2.80;;
76989;SDS011;65924;47.250;11.332;2023-04-15T01:26:20;5.80;;;3.00;;
76989;SDS011;65924;47.250;11.332;2023-04-15T01:26:59;4.20;;;2.60;;
76989;SDS011;65924;47.250;11.332;2023-04-15T01:27:38;4.40;;;2.70;;
76989;SDS011;65924;47.250;11.332;2023-04-15T01:28:18;5.80;;;3.00;;
76989;SDS011;65924;47.250;11.332;2023-04-15T01:28:57;5.20;;;2.90;;
76989;SDS011;65924;47.250;11.332;2023-04-15T01:29:36;6.20;;;2.90;;
76989;SDS011;65924;47.250;11.332;2023-04-15T01:30:17;8.30;;;3.10;;
76989;SDS011;65924;47.250;11.332;2023-04-15T01:31:08;4.60;;;2.60;;
76989;SDS011;65924;47.250;11.332;2023-04-15T01:31:50;4.90;;;2.80;;
76989;SDS011;65924;47.250;11.332;2023-04-15T01:32:29;5.10;;;2.70;;
76989;SDS011;65924;47.250;11.332;2023-04-15T01:33:09;4.90;;;2.50;;
76989;SDS011;65924;47.250;11.332;2023-04-15T01:33:49;4.90;;;2.70;;
76989;SDS011;65924;47.250;11.332;2023-04-15T01:34:28;4.40;;;2.60;;
76989;SDS011;65924;47.250;11.332;2023-04-15T01:35:07;5.10;;;2.70;;
76989;SDS011;65924;47.250;11.332;2023-04-15T01:35:46;6.10;;;3.10;;
76989;SDS011;65924;47.250;11.332;2023-04-15T01:36:24;5.70;;;2.90;;
76989;SDS011;65924;47.250;11.332;2023-04-15T01:37:05;5.10;;;2.90;;
76989;SDS011;65924;47.250;11.332;2023-04-15T01:37:45;6.10;;;2.40;;
76989;SDS011;65924;47.250;11.332;2023-04-15T01:38:28;5.10;;;2.40;;
76989;SDS011;65924;47.250;11.332;2023-04-15T01:39:07;5.00;;;2.40;;
76989;SDS011;65924;47.250;11.332;2023-04-15T01:39:46;6.10;;;2.40;;
76989;SDS011;65924;47.250;11.332;2023-04-15T01:40:25;4.70;;;2.20;;
76989;SDS011;65924;47.250;11.332;2023-04-15T01:41:04;5.00;;;2.30;;
76989;SDS011;65924;47.250;11.332;2023-04-15T01:41:44;5.10;;;2.60;;
76989;SDS011;65924;47.250;11.332;2023-04-15T01:42:23;4.90;;;2.70;;
76989;SDS011;65924;47.250;11.332;2023-04-15T01:43:02;5.20;;;2.60;;
76989;SDS011;65924;47.250;11.332;2023-04-15T01:43:41;5.60;;;2.40;;
76989;SDS011;65924;47.250;11.332;2023-04-15T01:44:20;6.80;;;2.80;;
76989;SDS011;65924;47.250;11.332;2023-04-15T01:44:59;6.70;;;3.00;;
76989;SDS011;65924;47.250;11.332;2023-04-15T01:45:38;4.90;;;2.50;;
76989;SDS011;65924;47.250;11.332;2023-04-15T01:46:17;4.70;;;2.70;;
76989;SDS011;65924;47.250;11.332;2023-04-15T01:46:55;5.00;;;3.00;;
76989;SDS011;65924;47.250;11.332;2023-04-15T01:47:34;5.30;;;3.50;;
76989;SDS011;65924;47.250;11.332;2023-04-15T01:48:13;5.90;;;2.70;;
76989;SDS011;65924;47.250;11.332;2023-04-15T01:48:52;5.20;;;2.60;;
76989;SDS011;65924;47.250;11.332;2023-04-15T01:49:30;5.40;;;2.50;;
76989;SDS011;65924;47.250;11.332;2023-04-15T01:50:09;5.10;;;2.30;;
76989;SDS011;65924;47.250;11.332;2023-04-15T01:50:48;5.60;;;2.70;;
76989;SDS011;65924;47.250;11.332;2023-04-15T01:51:27;6.00;;;2.60;;
76989;SDS011;65924;47.250;11.332;2023-04-15T01:52:06;6.00;;;3.00;;
76989;SDS011;65924;47.250;11.332;2023-04-15T01:52:45;4.80;;;2.60;;
76989;SDS011;65924;47.250;11.332;2023-04-15T01:53:24;4.70;;;2.60;;
76989;SDS011;65924;47.250;11.332;2023-04-15T01:54:03;6.50;;;2.80;;
76989;SDS011;65924;47.250;11.332;2023-04-15T01:54:42;4.90;;;2.60;;
76989;SDS011;65924;47.250;11.332;2023-04-15T01:55:20;5.20;;;2.80;;
76989;SDS011;65924;47.250;11.332;2023-04-15T01:55:59;5.30;;;2.90;;
76989;SDS011;65924;47.250;11.332;2023-04-15T01:56:38;6.60;;;3.30;;
76989;SDS011;65924;47.250;11.332;2023-04-15T01:57:17;4.60;;;2.80;;
76989;SDS011;65924;47.250;11.332;2023-04-15T01:57:56;5.00;;;3.00;;
76989;SDS011;65924;47.250;11.332;2023-04-15T01:58:35;5.60;;;2.60;;
76989;SDS011;65924;47.250;11.332;2023-04-15T01:59:14;5.10;;;2.70;;
76989;SDS011;65924;47.250;11.332;2023-04-15T01:59:53;4.70;;;2.60;;
76989;SDS011;65924;47.250;11.332;2023-04-15T02:00:33;5.50;;;3.30;;
76989;SDS011;65924;47.250;11.332;2023-04-15T02:01:12;5.30;;;2.70;;
76989;SDS011;65924;47.250;11.332;2023-04-15T02:01:52;7.10;;;3.20;;
76989;SDS011;65924;47.250;11.332;2023-04-15T02:02:31;5.30;;;2.50;;
76989;SDS011;65924;47.250;11.332;2023-04-15T02:03:12;4.40;;;2.60;;
76989;SDS011;65924;47.250;11.332;2023-04-15T02:03:51;5.80;;;2.40;;
76989;SDS011;65924;47.250;11.332;2023-04-15T02:04:30;5.00;;;2.70;;
76989;SDS011;65924;47.250;11.332;2023-04-15T02:05:11;4.80;;;2.20;;
76989;SDS011;65924;47.250;11.332;2023-04-15T02:05:51;4.90;;;2.60;;
76989;SDS011;65924;47.250;11.332;2023-04-15T02:06:30;4.40;;;2.30;;
76989;SDS011;65924;47.250;11.332;2023-04-15T02:07:08;4.90;;;2.50;;
76989;SDS011;65924;47.250;11.332;2023-04-15T02:07:47;5.20;;;2.50;;
76989;SDS011;65924;47.250;11.332;2023-04-15T02:08:26;4.40;;;2.40;;
76989;SDS011;65924;47.250;11.332;2023-04-15T02:09:05;5.00;;;2.30;;
76989;SDS011;65924;47.250;11.332;2023-04-15T02:09:44;7.60;;;2.90;;
76989;SDS011;65924;47.250;11.332;2023-04-15T02:10:23;4.40;;;2.60;;
76989;SDS011;65924;47.250;11.332;2023-04-15T02:11:02;5.10;;;2.60;;
76989;SDS011;65924;47.250;11.332;2023-04-15T02:11:43;5.30;;;2.70;;
76989;SDS011;65924;47.250;11.332;2023-04-15T02:12:33;8.20;;;3.20;;
76989;SDS011;65924;47.250;11.332;2023-04-15T02:13:11;5.80;;;3.10;;
76989;SDS011;65924;47.250;11.332;2023-04-15T02:13:50;4.80;;;2.50;;
76989;SDS011;65924;47.250;11.332;2023-04-15T02:14:29;6.70;;;2.80;;
76989;SDS011;65924;47.250;11.332;2023-04-15T02:15:09;6.20;;;2.70;;
76989;SDS011;65924;47.250;11.332;2023-04-15T02:15:48;5.10;;;2.50;;
76989;SDS011;65924;47.250;11.332;2023-04-15T02:16:31;4.20;;;2.20;;
76989;SDS011;65924;47.250;11.332;2023-04-15T02:17:10;4.20;;;2.10;;
76989;SDS011;65924;47.250;11.332;2023-04-15T02:17:49;5.10;;;2.00;;
76989;SDS011;65924;47.250;11.332;2023-04-15T02:18:29;5.40;;;2.20;;
76989;SDS011;65924;47.250;11.332;2023-04-15T02:19:08;5.20;;;2.60;;
76989;SDS011;65924;47.250;11.332;2023-04-15T02:19:56;5.20;;;2.10;;
76989;SDS011;65924;47.250;11.332;2023-04-15T02:20:38;7.00;;;2.30;;
76989;SDS011;65924;47.250;11.332;2023-04-15T02:21:16;4.90;;;2.60;;
76989;SDS011;65924;47.250;11.332;2023-04-15T02:21:58;4.30;;;2.00;;
76989;SDS011;65924;47.250;11.332;2023-04-15T02:22:38;4.40;;;2.10;;
76989;SDS011;65924;47.250;11.332;2023-04-15T02:23:18;5.10;;;2.20;;
76989;SDS011;65924;47.250;11.332;2023-04-15T02:23:58;4.50;;;2.40;;
76989;SDS011;65924;47.250;11.332;2023-04-15T02:24:37;5.20;;;2.10;;
76989;SDS011;65924;47.250;11.332;2023-04-15T02:25:15;3.80;;;2.10;;
76989;SDS011;65924;47.250;11.332;2023-04-15T02:25:57;3.90;;;1.70;;
76989;SDS011;65924;47.250;11.332;2023-04-15T02:26:37;3.70;;;1.60;;
76989;SDS011;65924;47.250;11.332;2023-04-15T02:27:16;4.30;;;1.60;;
76989;SDS011;65924;47.250;11.332;2023-04-15T02:27:56;4.00;;;1.80;;
76989;SDS011;65924;47.250;11.332;2023-04-15T02:28:35;4.80;;;2.00;;
76989;SDS011;65924;47.250;11.332;2023-04-15T02:29:14;4.60;;;1.90;;
76989;SDS011;65924;47.250;11.332;2023-04-15T02:29:55;3.80;;;1.60;;
76989;SDS011;65924;47.250;11.332;2023-04-15T02:30:33;3.70;;;1.60;;
76989;SDS011;65924;47.250;11.332;2023-04-15T02:31:13;4.10;;;2.10;;
76989;SDS011;65924;47.250;11.332;2023-04-15T02:31:52;4.90;;;1.90;;
76989;SDS011;65924;47.250;11.332;2023-04-15T02:32:32;4.30;;;1.70;;
76989;SDS011;65924;47.250;11.332;2023-04-15T02:33:10;5.30;;;1.90;;
76989;SDS011;65924;47.250;11.332;2023-04-15T02:33:49;4.60;;;1.80;;
76989;SDS011;65924;47.250;11.332;2023-04-15T02:34:28;4.10;;;1.60;;
76989;SDS011;65924;47.250;11.332;2023-04-15T02:35:09;3.60;;;1.90;;
76989;SDS011;65924;47.250;11.332;2023-04-15T02:35:48;3.50;;;1.60;;
76989;SDS011;65924;47.250;11.332;2023-04-15T02:36:26;3.60;;;1.50;;
76989;SDS011;65924;47.250;11.332;2023-04-15T02:37:08;5.50;;;1.60;;
76989;SDS011;65924;47.250;11.332;2023-04-15T02:37:48;5.40;;;1.80;;
76989;SDS011;65924;47.250;11.332;2023-04-15T02:38:27;4.10;;;1.70;;
76989;SDS011;65924;47.250;11.332;2023-04-15T02:39:06;3.30;;;1.50;;
76989;SDS011;65924;47.250;11.332;2023-04-15T02:39:45;4.10;;;1.60;;
76989;SDS011;65924;47.250;11.332;2023-04-15T02:40:24;5.10;;;1.50;;
76989;SDS011;65924;47.250;11.332;2023-04-15T02:41:03;3.60;;;1.90;;
76989;SDS011;65924;47.250;11.332;2023-04-15T02:41:41;3.30;;;1.40;;
76989;SDS011;65924;47.250;11.332;2023-04-15T02:42:22;3.80;;;1.80;;
76989;SDS011;65924;47.250;11.332;2023-04-15T02:43:05;4.10;;;1.60;;
76989;SDS011;65924;47.250;11.332;2023-04-15T02:43:45;3.70;;;1.60;;
76989;SDS011;65924;47.250;11.332;2023-04-15T02:44:24;5.20;;;2.00;;
76989;SDS011;65924;47.250;11.332;2023-04-15T02:45:04;3.60;;;1.60;;
76989;SDS011;65924;47.250;11.332;2023-04-15T02:45:45;4.10;;;1.60;;
76989;SDS011;65924;47.250;11.332;2023-04-15T02:46:24;3.60;;;1.50;;
76989;SDS011;65924;47.250;11.332;2023-04-15T02:47:03;3.80;;;1.70;;
76989;SDS011;65924;47.250;11.332;2023-04-15T02:47:43;3.90;;;1.70;;
76989;SDS011;65924;47.250;11.332;2023-04-15T02:48:23;3.80;;;1.50;;
76989;SDS011;65924;47.250;11.332;2023-04-15T02:49:02;4.30;;;1.60;;
76989;SDS011;65924;47.250;11.332;2023-04-15T02:49:40;4.60;;;1.60;;
76989;SDS011;65924;47.250;11.332;2023-04-15T02:50:19;3.50;;;1.40;;
76989;SDS011;65924;47.250;11.332;2023-04-15T02:51:11;4.20;;;1.80;;
76989;SDS011;65924;47.250;11.332;2023-04-15T02:51:55;3.60;;;1.60;;
76989;SDS011;65924;47.250;11.332;2023-04-15T02:52:35;3.80;;;1.50;;
76989;SDS011;65924;47.250;11.332;2023-04-15T02:53:14;3.40;;;1.50;;
76989;SDS011;65924;47.250;11.332;2023-04-15T02:53:52;6.80;;;1.90;;
76989;SDS011;65924;47.250;11.332;2023-04-15T02:54:31;3.40;;;1.30;;
76989;SDS011;65924;47.250;11.332;2023-04-15T02:55:11;3.80;;;1.60;;
76989;SDS011;65924;47.250;11.332;2023-04-15T02:55:50;3.80;;;1.80;;
76989;SDS011;65924;47.250;11.332;2023-04-15T02:56:29;3.30;;;1.30;;
76989;SDS011;65924;47.250;11.332;2023-04-15T02:57:08;4.00;;;1.30;;
76989;SDS011;65924;47.250;11.332;2023-04-15T02:57:48;4.00;;;1.70;;
76989;SDS011;65924;47.250;11.332;2023-04-15T02:58:26;4.20;;;1.40;;
76989;SDS011;65924;47.250;11.332;2023-04-15T02:59:05;5.20;;;1.50;;
76989;SDS011;65924;47.250;11.332;2023-04-15T02:59:46;3.10;;;1.40;;
76989;SDS011;65924;47.250;11.332;2023-04-15T03:00:25;3.60;;;1.50;;
76989;SDS011;65924;47.250;11.332;2023-04-15T03:01:04;3.70;;;1.30;;
76989;SDS011;65924;47.250;11.332;2023-04-15T03:01:44;4.50;;;1.50;;
76989;SDS011;65924;47.250;11.332;2023-04-15T03:02:23;3.90;;;1.20;;
76989;SDS011;65924;47.250;11.332;2023-04-15T03:03:09;3.10;;;1.30;;
76989;SDS011;65924;47.250;11.332;2023-04-15T03:03:48;3.50;;;1.20;;
76989;SDS011;65924;47.250;11.332;2023-04-15T03:04:26;6.10;;;1.30;;
76989;SDS011;65924;47.250;11.332;2023-04-15T03:05:18;3.30;;;1.30;;
76989;SDS011;65924;47.250;11.332;2023-04-15T03:06:02;4.80;;;1.40;;
76989;SDS011;65924;47.250;11.332;2023-04-15T03:06:41;3.80;;;1.60;;
76989;SDS011;65924;47.250;11.332;2023-04-15T03:07:20;3.60;;;1.50;;
76989;SDS011;65924;47.250;11.332;2023-04-15T03:07:59;3.90;;;1.40;;
76989;SDS011;65924;47.250;11.332;2023-04-15T03:08:38;4.70;;;1.40;;
76989;SDS011;65924;47.250;11.332;2023-04-15T03:09:17;5.20;;;1.50;;
76989;SDS011;65924;47.250;11.332;2023-04-15T03:09:56;3.30;;;1.20;;
76989;SDS011;65924;47.250;11.332;2023-04-15T03:10:37;3.30;;;1.10;;
76989;SDS011;65924;47.250;11.332;2023-04-15T03:11:15;3.20;;;1.50;;
76989;SDS011;65924;47.250;11.332;2023-04-15T03:11:55;5.00;;;1.40;;
76989;SDS011;65924;47.250;11.332;2023-04-15T03:12:34;3.30;;;1.20;;
76989;SDS011;65924;47.250;11.332;2023-04-15T03:13:25;4.10;;;1.20;;
76989;SDS011;65924;47.250;11.332;2023-04-15T03:14:06;4.10;;;1.60;;
76989;SDS011;65924;47.250;11.332;2023-04-15T03:14:47;3.90;;;1.50;;
76989;SDS011;65924;47.250;11.332;2023-04-15T03:15:26;2.90;;;1.40;;
76989;SDS011;65924;47.250;11.332;2023-04-15T03:16:06;3.80;;;1.30;;
76989;SDS011;65924;47.250;11.332;2023-04-15T03:16:45;5.00;;;1.60;;
76989;SDS011;65924;47.250;11.332;2023-04-15T03:17:24;4.10;;;2.00;;
76989;SDS011;65924;47.250;11.332;2023-04-15T03:18:04;3.80;;;1.20;;
76989;SDS011;65924;47.250;11.332;2023-04-15T03:18:43;7.60;;;1.50;;
76989;SDS011;65924;47.250;11.332;2023-04-15T03:19:21;3.60;;;1.30;;
76989;SDS011;65924;47.250;11.332;2023-04-15T03:20:01;3.90;;;1.60;;
76989;SDS011;65924;47.250;11.332;2023-04-15T03:20:44;3.00;;;1.30;;
76989;SDS011;65924;47.250;11.332;2023-04-15T03:21:24;2.90;;;1.00;;
76989;SDS011;65924;47.250;11.332;2023-04-15T03:22:04;3.80;;;1.30;;
76989;SDS011;65924;47.250;11.332;2023-04-15T03:22:44;3.40;;;1.60;;
76989;SDS011;65924;47.250;11.332;2023-04-15T03:23:22;3.20;;;1.30;;
76989;SDS011;65924;47.250;11.332;2023-04-15T03:24:01;5.60;;;1.40;;
76989;SDS011;65924;47.250;11.332;2023-04-15T03:24:41;2.80;;;1.10;;
76989;SDS011;65924;47.250;11.332;2023-04-15T03:25:23;5.80;;;1.30;;
76989;SDS011;65924;47.250;11.332;2023-04-15T03:26:02;4.80;;;1.80;;
76989;SDS011;65924;47.250;11.332;2023-04-15T03:26:41;3.40;;;1.20;;
76989;SDS011;65924;47.250;11.332;2023-04-15T03:27:23;4.20;;;1.60;;
76989;SDS011;65924;47.250;11.332;2023-04-15T03:28:03;3.70;;;1.20;;
76989;SDS011;65924;47.250;11.332;2023-04-15T03:28:42;3.60;;;1.60;;
76989;SDS011;65924;47.250;11.332;2023-04-15T03:29:20;2.80;;;1.20;;
76989;SDS011;65924;47.250;11.332;2023-04-15T03:29:59;3.60;;;1.10;;
76989;SDS011;65924;47.250;11.332;2023-04-15T03:30:39;3.70;;;1.30;;
76989;SDS011;65924;47.250;11.332;2023-04-15T03:31:18;3.80;;;1.40;;
76989;SDS011;65924;47.250;11.332;2023-04-15T03:31:56;3.40;;;1.20;;
76989;SDS011;65924;47.250;11.332;2023-04-15T03:32:36;2.70;;;1.40;;
76989;SDS011;65924;47.250;11.332;2023-04-15T03:33:16;4.50;;;1.50;;
76989;SDS011;65924;47.250;11.332;2023-04-15T03:34:03;4.40;;;1.60;;
76989;SDS011;65924;47.250;11.332;2023-04-15T03:34:45;4.50;;;1.60;;
76989;SDS011;65924;47.250;11.332;2023-04-15T03:35:23;3.20;;;1.60;;
76989;SDS011;65924;47.250;11.332;2023-04-15T03:36:05;4.00;;;1.50;;
76989;SDS011;65924;47.250;11.332;2023-04-15T03:36:46;3.60;;;1.50;;
76989;SDS011;65924;47.250;11.332;2023-04-15T03:37:25;4.40;;;1.60;;
76989;SDS011;65924;47.250;11.332;2023-04-15T03:38:04;3.60;;;1.60;;
76989;SDS011;65924;47.250;11.332;2023-04-15T03:38:43;3.60;;;1.30;;
76989;SDS011;65924;47.250;11.332;2023-04-15T03:39:25;4.40;;;1.90;;
76989;SDS011;65924;47.250;11.332;2023-04-15T03:40:04;4.50;;;2.00;;
76989;SDS011;65924;47.250;11.332;2023-04-15T03:40:45;4.10;;;1.60;;
76989;SDS011;65924;47.250;11.332;2023-04-15T03:41:33;5.00;;;2.20;;
76989;SDS011;65924;47.250;11.332;2023-04-15T03:42:12;7.10;;;2.20;;
76989;SDS011;65924;47.250;11.332;2023-04-15T03:42:51;4.60;;;1.60;;
76989;SDS011;65924;47.250;11.332;2023-04-15T03:43:32;4.20;;;2.10;;
76989;SDS011;65924;47.250;11.332;2023-04-15T03:44:20;3.20;;;1.50;;
76989;SDS011;65924;47.250;11.332;2023-04-15T03:44:58;4.60;;;1.60;;
76989;SDS011;65924;47.250;11.332;2023-04-15T03:45:44;3.70;;;1.50;;
76989;SDS011;65924;47.250;11.332;2023-04-15T03:46:23;3.20;;;1.40;;
76989;SDS011;65924;47.250;11.332;2023-04-15T03:47:04;3.90;;;1.60;;
76989;SDS011;65924;47.250;11.332;2023-04-15T03:47:43;4.00;;;1.50;;
76989;SDS011;65924;47.250;11.332;2023-04-15T03:48:22;3.60;;;1.40;;
76989;SDS011;65924;47.250;11.332;2023-04-15T03:49:06;3.30;;;1.60;;
76989;SDS011;65924;47.250;11.332;2023-04-15T03:49:47;8.70;;;1.70;;
76989;SDS011;65924;47.250;11.332;2023-04-15T03:50:26;4.00;;;1.50;;
76989;SDS011;65924;47.250;11.332;2023-04-15T03:51:08;5.80;;;1.70;;
76989;SDS011;65924;47.250;11.332;2023-04-15T03:51:46;3.40;;;1.30;;
76989;SDS011;65924;47.250;11.332;2023-04-15T03:52:28;4.60;;;1.30;;
76989;SDS011;65924;47.250;11.332;2023-04-15T03:53:06;3.60;;;1.60;;
76989;SDS011;65924;47.250;11.332;2023-04-15T03:53:49;3.60;;;1.10;;
76989;SDS011;65924;47.250;11.332;2023-04-15T03:54:30;3.30;;;1.40;;
76989;SDS011;65924;47.250;11.332;2023-04-15T03:55:10;4.80;;;1.80;;
76989;SDS011;65924;47.250;11.332;2023-04-15T03:55:48;3.70;;;1.10;;
76989;SDS011;65924;47.250;11.332;2023-04-15T03:56:27;3.90;;;1.70;;